Terminal Aerodrome Forecast
Issued by NWS Caribou, ME

Home | Current Version | Previous Version | Text Only | Print | Product List | Glossary On
Versions: 1 2 3 4 5 6 7 8 9 10 11 12 13 14 15
112
FTUS41 KCAR 242320
TAFBGR
TAF
KBGR 242320Z 2500/2524 17007KT P6SM FEW200
     FM251500 20011KT P6SM FEW250
     FM252100 21007KT P6SM VCSH SCT250
     FM252300 22005KT 5SM -RA BKN150=

USA.gov is the U.S. government's official web portal to all federal, state and local government web resources and services.